createdAt,value
2023-02-17T00:01:22.988Z,9.38
2023-02-17T00:03:36.106Z,9.34
2023-02-17T00:05:50.857Z,9.31
2023-02-17T00:08:04.695Z,9.29
2023-02-17T00:10:18.834Z,9.27
2023-02-17T00:12:32.774Z,9.26
2023-02-17T00:14:47.433Z,9.22
2023-02-17T00:17:01.114Z,9.18
2023-02-17T00:19:28.184Z,9.17
2023-02-17T00:21:41.233Z,9.16
2023-02-17T00:23:55.326Z,9.16
2023-02-17T00:26:10.933Z,9.17
2023-02-17T00:28:24.844Z,9.17
2023-02-17T00:30:38.066Z,9.14
2023-02-17T00:32:51.139Z,9.11
2023-02-17T00:35:05.862Z,9.10
2023-02-17T00:37:20.365Z,9.09
2023-02-17T00:39:36.990Z,9.10
2023-02-17T00:41:50.662Z,9.09
2023-02-17T00:44:04.368Z,9.07
2023-02-17T00:46:18.348Z,9.07
2023-02-17T00:48:31.580Z,9.05
2023-02-17T00:50:49.020Z,9.00
2023-02-17T00:53:02.586Z,8.98
2023-02-17T00:55:16.115Z,8.94
2023-02-17T00:57:33.504Z,8.90
2023-02-17T00:59:47.138Z,8.85
2023-02-17T01:02:00.021Z,8.80
2023-02-17T01:04:15.240Z,8.75
2023-02-17T01:06:31.858Z,8.70
2023-02-17T01:08:46.751Z,8.67
2023-02-17T01:11:00.174Z,8.64
2023-02-17T01:13:19.701Z,8.61
2023-02-17T01:15:35.118Z,8.59
2023-02-17T01:17:48.063Z,8.58
2023-02-17T01:20:01.094Z,8.58
2023-02-17T01:22:15.094Z,8.58
2023-02-17T01:24:28.353Z,8.56
2023-02-17T01:26:42.662Z,8.54
2023-02-17T01:28:57.144Z,8.53
2023-02-17T01:31:14.637Z,8.51
2023-02-17T01:33:28.191Z,8.50
2023-02-17T01:35:43.241Z,8.48
2023-02-17T01:37:58.508Z,8.46
2023-02-17T01:40:15.101Z,8.44
2023-02-17T01:42:28.747Z,8.44
2023-02-17T01:44:54.716Z,8.43
2023-02-17T01:47:07.705Z,8.43
2023-02-17T01:49:30.620Z,8.42
2023-02-17T01:51:44.436Z,8.41
2023-02-17T01:54:02.821Z,8.41
2023-02-17T01:56:20.265Z,8.41
2023-02-17T01:58:34.731Z,8.40
2023-02-17T02:00:50.173Z,8.38
2023-02-17T02:03:04.044Z,8.37
2023-02-17T02:05:18.643Z,8.36
2023-02-17T02:07:36.015Z,8.35
2023-02-17T02:09:54.072Z,8.35
2023-02-17T02:12:19.648Z,8.34
2023-02-17T02:14:34.066Z,8.34
2023-02-17T02:16:54.486Z,8.35
2023-02-17T02:19:23.547Z,8.35
2023-02-17T02:22:06.578Z,8.35
2023-02-17T02:24:47.314Z,8.35
2023-02-17T02:27:30.740Z,8.37
2023-02-17T02:30:16.472Z,8.39
2023-02-17T02:32:57.023Z,8.41
2023-02-17T02:35:17.400Z,8.42
2023-02-17T02:37:37.114Z,8.44
2023-02-17T02:39:52.499Z,8.47
2023-02-17T02:42:10.544Z,8.48
2023-02-17T02:44:25.889Z,8.46
2023-02-17T02:46:39.050Z,8.43
2023-02-17T02:48:54.062Z,8.39
2023-02-17T02:51:21.754Z,8.35
2023-02-17T02:54:00.096Z,8.30
2023-02-17T02:56:25.100Z,8.26
2023-02-17T02:58:50.411Z,8.23
2023-02-17T03:01:07.877Z,8.21
2023-02-17T03:03:27.229Z,8.18
2023-02-17T03:05:51.431Z,8.15
2023-02-17T03:08:07.453Z,8.12
2023-02-17T03:10:22.566Z,8.10
2023-02-17T03:12:36.997Z,8.09
2023-02-17T03:14:51.819Z,8.08
2023-02-17T03:17:05.703Z,8.06
2023-02-17T03:19:20.705Z,8.05
2023-02-17T03:21:38.840Z,8.04
2023-02-17T03:23:52.279Z,8.04
2023-02-17T03:26:05.765Z,8.03
2023-02-17T03:28:19.752Z,8.01
2023-02-17T03:30:33.329Z,8.01
2023-02-17T03:32:46.849Z,8.01
2023-02-17T03:35:02.130Z,8.02
2023-02-17T03:37:15.667Z,8.03
2023-02-17T03:39:28.648Z,8.01
2023-02-17T03:41:41.669Z,8.00
2023-02-17T03:43:54.646Z,7.98
2023-02-17T03:46:08.262Z,7.96
2023-02-17T03:48:21.569Z,7.95
2023-02-17T03:50:34.998Z,7.93
2023-02-17T03:52:48.206Z,7.93
2023-02-17T03:55:01.697Z,7.93
2023-02-17T03:57:14.879Z,7.94
2023-02-17T03:59:28.658Z,7.96
2023-02-17T04:01:41.937Z,7.96
2023-02-17T04:03:55.032Z,7.96
2023-02-17T04:06:09.057Z,7.95
2023-02-17T04:08:22.046Z,7.93
2023-02-17T04:10:35.712Z,7.95
2023-02-17T04:12:48.888Z,7.93
2023-02-17T04:17:28.266Z,7.90
2023-02-17T04:19:41.651Z,7.89
2023-02-17T04:21:54.752Z,7.87
2023-02-17T04:24:08.754Z,7.86
2023-02-17T04:26:26.986Z,7.85
2023-02-17T04:28:44.344Z,7.84
2023-02-17T04:30:57.687Z,7.84
2023-02-17T04:33:11.674Z,7.82
2023-02-17T04:35:24.695Z,7.81
2023-02-17T04:37:38.136Z,7.80
2023-02-17T04:39:54.035Z,7.77
2023-02-17T04:42:07.693Z,7.74
2023-02-17T04:44:21.860Z,7.72
2023-02-17T04:46:36.517Z,7.70
2023-02-17T04:48:50.246Z,7.68
2023-02-17T04:51:04.127Z,7.68
2023-02-17T04:53:18.844Z,7.66
2023-02-17T04:55:32.463Z,7.64
2023-02-17T04:57:48.232Z,7.62
2023-02-17T05:00:02.448Z,7.62
2023-02-17T05:02:16.025Z,7.61
2023-02-17T05:04:29.137Z,7.60
2023-02-17T05:06:42.527Z,7.59
2023-02-17T05:08:56.939Z,7.59
2023-02-17T05:11:11.272Z,7.58
2023-02-17T05:13:24.868Z,7.57
2023-02-17T05:15:38.836Z,7.55
2023-02-17T05:17:52.173Z,7.52
2023-02-17T05:20:05.536Z,7.51
2023-02-17T05:22:18.763Z,7.48
2023-02-17T05:24:32.196Z,7.47
2023-02-17T05:26:51.663Z,7.45
2023-02-17T05:29:07.603Z,7.44
2023-02-17T05:31:20.848Z,7.43
2023-02-17T05:33:34.169Z,7.40
2023-02-17T05:35:50.362Z,7.37
2023-02-17T05:38:05.983Z,7.34
2023-02-17T05:40:23.185Z,7.35
2023-02-17T05:42:36.367Z,7.34
2023-02-17T05:44:49.417Z,7.34
2023-02-17T05:47:03.849Z,7.33
2023-02-17T05:49:17.889Z,7.31
2023-02-17T05:51:32.149Z,7.29
2023-02-17T05:53:46.093Z,7.27
2023-02-17T05:56:02.941Z,7.26
2023-02-17T05:58:16.057Z,7.26
2023-02-17T06:00:30.197Z,7.28
2023-02-17T06:02:44.461Z,7.30
2023-02-17T06:05:00.631Z,7.31
2023-02-17T06:07:14.588Z,7.31
2023-02-17T06:09:32.070Z,7.31
2023-02-17T06:11:48.676Z,7.32
2023-02-17T06:14:05.369Z,7.33
2023-02-17T06:16:19.021Z,7.34
2023-02-17T06:18:33.940Z,7.35
2023-02-17T06:20:47.822Z,7.37
2023-02-17T06:23:01.089Z,7.37
2023-02-17T06:25:18.822Z,7.38
2023-02-17T06:27:35.472Z,7.40
2023-02-17T06:29:51.819Z,7.43
2023-02-17T06:32:06.077Z,7.46
2023-02-17T06:34:19.877Z,7.47
2023-02-17T06:36:33.747Z,7.48
2023-02-17T06:38:46.865Z,7.50
2023-02-17T06:40:59.967Z,7.51
2023-02-17T06:43:16.470Z,7.52
2023-02-17T06:45:30.282Z,7.52
2023-02-17T06:47:43.582Z,7.50
2023-02-17T06:49:56.454Z,7.50
2023-02-17T06:52:09.513Z,7.50
2023-02-17T06:54:23.436Z,7.49
2023-02-17T06:56:37.654Z,7.48
2023-02-17T06:58:51.000Z,7.46
2023-02-17T07:01:06.712Z,7.45
2023-02-17T07:03:19.802Z,7.44
2023-02-17T07:05:33.483Z,7.43
2023-02-17T07:07:47.011Z,7.42
2023-02-17T07:12:30.776Z,7.42
2023-02-17T07:14:45.101Z,7.42
2023-02-17T07:16:58.900Z,7.41
2023-02-17T07:19:12.778Z,7.40
2023-02-17T07:21:26.201Z,7.38
2023-02-17T07:23:39.359Z,7.37
2023-02-17T07:25:52.408Z,7.36
2023-02-17T07:28:05.660Z,7.34
2023-02-17T07:30:19.518Z,7.33
2023-02-17T07:32:32.819Z,7.32
2023-02-17T07:34:45.804Z,7.29
2023-02-17T07:36:58.965Z,7.26
2023-02-17T07:39:11.908Z,7.23
2023-02-17T07:41:29.896Z,7.21
2023-02-17T07:43:43.355Z,7.19
2023-02-17T07:45:59.997Z,7.16
2023-02-17T07:48:13.816Z,7.13
2023-02-17T07:50:27.063Z,7.10
2023-02-17T07:52:41.844Z,7.07
2023-02-17T07:54:55.900Z,7.06
2023-02-17T07:57:12.850Z,7.04
2023-02-17T07:59:25.942Z,7.02
2023-02-17T08:01:39.995Z,7.02
2023-02-17T08:03:54.184Z,7.02
2023-02-17T08:06:08.242Z,7.02
2023-02-17T08:08:38.062Z,7.02
2023-02-17T08:11:08.842Z,7.04
2023-02-17T08:13:23.368Z,7.05
2023-02-17T08:15:39.015Z,7.04
2023-02-17T08:17:52.444Z,7.03
2023-02-17T08:20:08.969Z,7.02
2023-02-17T08:22:22.664Z,7.02
2023-02-17T08:24:35.565Z,7.01
2023-02-17T08:26:49.213Z,7.00
2023-02-17T08:29:02.504Z,6.99
2023-02-17T08:31:24.929Z,6.98
2023-02-17T08:33:38.204Z,6.98
2023-02-17T08:35:52.050Z,6.97
2023-02-17T08:38:05.705Z,6.96
2023-02-17T08:40:20.742Z,6.96
2023-02-17T08:42:35.105Z,6.94
2023-02-17T08:44:48.664Z,6.93
2023-02-17T08:47:02.767Z,6.93
2023-02-17T08:49:17.342Z,6.92
2023-02-17T08:51:31.124Z,6.92
2023-02-17T08:53:44.471Z,6.92
2023-02-17T08:55:57.862Z,6.92
2023-02-17T08:58:11.606Z,6.91
2023-02-17T09:00:26.234Z,6.90
2023-02-17T09:02:39.301Z,6.89
2023-02-17T09:04:52.293Z,6.89
2023-02-17T09:07:06.030Z,6.89
2023-02-17T09:09:20.494Z,6.89
2023-02-17T09:11:33.500Z,6.88
2023-02-17T09:13:47.008Z,6.87
2023-02-17T09:15:59.674Z,6.87
2023-02-17T09:18:13.147Z,6.86
2023-02-17T09:20:26.339Z,6.86
2023-02-17T09:22:40.310Z,6.86
2023-02-17T09:24:53.386Z,6.85
2023-02-17T09:27:07.912Z,6.85
2023-02-17T09:29:20.721Z,6.85
2023-02-17T09:31:33.761Z,6.86
2023-02-17T09:33:48.837Z,6.85
2023-02-17T09:36:01.814Z,6.86
2023-02-17T09:38:14.511Z,6.86
2023-02-17T09:40:35.888Z,6.86
2023-02-17T09:42:48.687Z,6.86
2023-02-17T09:45:06.653Z,6.86
2023-02-17T09:47:25.902Z,6.87
2023-02-17T09:49:44.330Z,6.87
2023-02-17T09:52:04.341Z,6.88
2023-02-17T09:54:24.561Z,6.87
2023-02-17T09:56:42.241Z,6.88
2023-02-17T09:58:59.062Z,6.90
2023-02-17T10:01:15.383Z,6.91
2023-02-17T10:03:33.970Z,6.91
2023-02-17T10:05:55.189Z,6.91
2023-02-17T10:08:14.106Z,6.91
2023-02-17T10:10:31.630Z,6.89
2023-02-17T10:13:06.024Z,6.85
2023-02-17T10:15:24.463Z,6.85
2023-02-17T10:17:42.844Z,6.85
2023-02-17T10:20:00.296Z,6.86
2023-02-17T10:22:19.260Z,6.87
2023-02-17T10:24:32.745Z,6.87
2023-02-17T10:27:05.330Z,6.87
2023-02-17T10:29:41.125Z,6.87
2023-02-17T10:32:04.378Z,6.85
2023-02-17T10:34:29.126Z,6.85
2023-02-17T10:36:53.465Z,6.84
2023-02-17T10:39:10.053Z,6.83
2023-02-17T10:41:27.684Z,6.85
2023-02-17T10:43:40.834Z,6.87
2023-02-17T10:45:54.897Z,6.90
2023-02-17T10:48:15.910Z,6.94
2023-02-17T10:50:29.803Z,6.98
2023-02-17T10:52:45.215Z,7.02
2023-02-17T10:55:11.373Z,7.05
2023-02-17T10:57:39.022Z,7.08
2023-02-17T10:59:54.132Z,7.09
2023-02-17T11:02:23.389Z,7.10
2023-02-17T11:04:47.202Z,7.10
2023-02-17T11:07:04.155Z,7.09
2023-02-17T11:09:29.923Z,7.06
2023-02-17T11:11:52.745Z,7.05
2023-02-17T11:14:15.626Z,7.04
2023-02-17T11:16:36.907Z,7.02
2023-02-17T11:18:53.798Z,7.02
2023-02-17T11:21:13.139Z,7.01
2023-02-17T11:23:30.887Z,6.99
2023-02-17T11:25:44.327Z,6.97
2023-02-17T11:28:02.307Z,6.96
2023-02-17T11:30:27.945Z,6.95
2023-02-17T11:32:40.881Z,6.94
2023-02-17T11:35:06.321Z,6.95
2023-02-17T11:37:29.027Z,6.94
2023-02-17T11:39:43.098Z,6.92
2023-02-17T11:41:56.549Z,6.90
2023-02-17T11:44:12.809Z,6.89
2023-02-17T11:46:33.208Z,6.88
2023-02-17T11:48:57.673Z,6.88
2023-02-17T11:51:18.140Z,6.85
2023-02-17T11:53:45.990Z,6.84
2023-02-17T11:56:09.942Z,6.82
2023-02-17T11:58:39.657Z,6.82
2023-02-17T12:01:01.777Z,6.81
2023-02-17T12:03:45.845Z,6.80
2023-02-17T12:06:11.871Z,6.80
2023-02-17T12:08:35.405Z,6.80
2023-02-17T12:11:05.615Z,6.80
2023-02-17T12:13:32.960Z,6.79
2023-02-17T12:16:02.125Z,6.75
2023-02-17T12:18:33.487Z,6.74
2023-02-17T12:20:54.449Z,6.73
2023-02-17T12:23:28.293Z,6.72
2023-02-17T12:25:48.760Z,6.68
2023-02-17T12:28:12.884Z,6.68
2023-02-17T12:30:42.621Z,6.66
2023-02-17T12:33:13.307Z,6.65
2023-02-17T12:35:30.775Z,6.64
2023-02-17T12:37:51.657Z,6.63
2023-02-17T12:40:08.482Z,6.61
2023-02-17T12:42:27.955Z,6.60
2023-02-17T12:44:46.447Z,6.60
2023-02-17T12:47:00.955Z,6.61
2023-02-17T12:49:20.158Z,6.62
2023-02-17T12:51:37.104Z,6.63
2023-02-17T12:53:55.406Z,6.65
2023-02-17T12:56:17.865Z,6.67
2023-02-17T12:58:32.296Z,6.69
2023-02-17T13:00:50.414Z,6.71
2023-02-17T13:03:08.881Z,6.72
2023-02-17T13:05:28.670Z,6.72
2023-02-17T13:07:51.711Z,6.72
2023-02-17T13:10:05.052Z,6.74
2023-02-17T13:12:35.258Z,6.75
2023-02-17T13:14:50.008Z,6.78
2023-02-17T13:17:03.399Z,6.80
2023-02-17T13:19:17.890Z,6.80
2023-02-17T13:21:39.420Z,6.82
2023-02-17T13:24:08.206Z,6.83
2023-02-17T13:26:32.545Z,6.84
2023-02-17T13:28:46.772Z,6.85
2023-02-17T13:31:11.746Z,6.86
2023-02-17T13:33:44.427Z,6.88
2023-02-17T13:35:57.881Z,6.91
2023-02-17T13:38:13.599Z,6.93
2023-02-17T13:40:44.159Z,6.97
2023-02-17T13:42:59.158Z,7.02
2023-02-17T13:45:25.185Z,7.07
2023-02-17T13:47:42.946Z,7.13
2023-02-17T13:50:00.632Z,7.19
2023-02-17T13:52:22.125Z,7.24
2023-02-17T13:54:35.067Z,7.32
2023-02-17T13:56:57.523Z,7.38
2023-02-17T13:59:19.976Z,7.45
2023-02-17T14:01:33.915Z,7.51
2023-02-17T14:03:53.466Z,7.56
2023-02-17T14:06:07.861Z,7.61
2023-02-17T14:08:28.746Z,7.64
2023-02-17T14:10:42.366Z,7.68
2023-02-17T14:12:55.981Z,7.70
2023-02-17T14:15:18.043Z,7.73
2023-02-17T14:17:37.225Z,7.72
2023-02-17T14:19:52.958Z,7.72
2023-02-17T14:22:07.902Z,7.71
2023-02-17T14:24:34.853Z,7.69
2023-02-17T14:26:51.155Z,7.67
2023-02-17T14:29:06.875Z,7.67
2023-02-17T14:31:25.835Z,7.66
2023-02-17T14:33:39.224Z,7.65
2023-02-17T14:36:00.076Z,7.65
2023-02-17T14:38:26.203Z,7.65
2023-02-17T14:40:40.221Z,7.66
2023-02-17T14:42:55.200Z,7.66
2023-02-17T14:45:08.717Z,7.67
2023-02-17T14:47:21.764Z,7.67
2023-02-17T14:49:35.056Z,7.67
2023-02-17T14:51:49.517Z,7.67
2023-02-17T14:54:04.678Z,7.66
2023-02-17T14:56:24.683Z,7.67
2023-02-17T14:58:38.129Z,7.68
2023-02-17T15:00:51.184Z,7.69
2023-02-17T15:03:04.422Z,7.71
2023-02-17T15:05:17.564Z,7.72
2023-02-17T15:07:30.785Z,7.72
2023-02-17T15:09:45.030Z,7.73
2023-02-17T15:11:59.623Z,7.73
2023-02-17T15:14:15.700Z,7.72
2023-02-17T15:16:29.030Z,7.72
2023-02-17T15:18:42.874Z,7.71
2023-02-17T15:20:56.644Z,7.72
2023-02-17T15:23:14.690Z,7.71
2023-02-17T15:25:28.988Z,7.72
2023-02-17T15:27:42.308Z,7.72
2023-02-17T15:29:55.511Z,7.73
2023-02-17T15:32:16.222Z,7.74
2023-02-17T15:34:33.900Z,7.75
2023-02-17T15:36:47.289Z,7.75
2023-02-17T15:39:01.186Z,7.75
2023-02-17T15:41:20.916Z,7.76
2023-02-17T15:43:40.502Z,7.77
2023-02-17T15:45:53.538Z,7.77
2023-02-17T15:48:09.707Z,7.76
2023-02-17T15:50:28.126Z,7.75
2023-02-17T15:52:41.174Z,7.75
2023-02-17T15:54:55.054Z,7.74
2023-02-17T15:57:09.956Z,7.74
2023-02-17T15:59:26.915Z,7.75
2023-02-17T16:01:40.634Z,7.76
2023-02-17T16:03:53.974Z,7.78
2023-02-17T16:06:07.326Z,7.82
2023-02-17T16:08:21.210Z,7.85
2023-02-17T16:10:35.570Z,7.87
2023-02-17T16:12:49.296Z,7.89
2023-02-17T16:15:02.954Z,7.93
2023-02-17T16:17:22.239Z,7.96
2023-02-17T16:19:36.033Z,8.00
2023-02-17T16:21:50.256Z,8.03
2023-02-17T16:24:03.222Z,8.07
2023-02-17T16:26:26.266Z,8.09
2023-02-17T16:28:39.883Z,8.12
2023-02-17T16:30:53.298Z,8.15
2023-02-17T16:33:06.757Z,8.16
2023-02-17T16:35:24.985Z,8.18
2023-02-17T16:37:38.699Z,8.19
2023-02-17T16:39:53.072Z,8.19
2023-02-17T16:42:06.491Z,8.20
2023-02-17T16:44:21.692Z,8.21
2023-02-17T16:46:37.274Z,8.22
2023-02-17T16:48:50.730Z,8.23
2023-02-17T16:51:03.672Z,8.23
2023-02-17T16:53:19.161Z,8.23
2023-02-17T16:55:35.289Z,8.23
2023-02-17T16:57:49.687Z,8.21
2023-02-17T17:00:03.623Z,8.20
2023-02-17T17:02:19.789Z,8.18
2023-02-17T17:04:34.146Z,8.17
2023-02-17T17:06:49.674Z,8.15
2023-02-17T17:09:02.985Z,8.14
2023-02-17T17:11:18.324Z,8.10
2023-02-17T17:13:31.635Z,8.08
2023-02-17T17:15:48.777Z,8.06
2023-02-17T17:18:05.375Z,8.05
2023-02-17T17:20:23.225Z,8.04
2023-02-17T17:22:37.844Z,8.01
2023-02-17T17:24:50.884Z,7.98
2023-02-17T17:27:03.965Z,7.97
2023-02-17T17:29:18.515Z,7.96
2023-02-17T17:31:32.972Z,7.97
2023-02-17T17:33:46.685Z,7.97
2023-02-17T17:36:01.814Z,7.99
2023-02-17T17:38:16.958Z,7.99
2023-02-17T17:40:49.512Z,7.97
2023-02-17T17:43:02.496Z,7.93
2023-02-17T17:45:16.443Z,7.93
2023-02-17T17:47:30.432Z,7.93
2023-02-17T17:49:43.625Z,7.91
2023-02-17T17:51:56.930Z,7.91
2023-02-17T17:54:11.081Z,7.92
2023-02-17T17:56:26.767Z,7.95
2023-02-17T17:58:40.179Z,7.97
2023-02-17T18:00:54.238Z,8.01
2023-02-17T18:03:07.235Z,8.05
2023-02-17T18:05:20.596Z,8.08
2023-02-17T18:07:38.253Z,8.08
2023-02-17T18:09:51.841Z,8.09
2023-02-17T18:12:09.217Z,8.09
2023-02-17T18:14:22.579Z,8.11
2023-02-17T18:16:37.600Z,8.12
2023-02-17T18:18:56.213Z,8.16
2023-02-17T18:21:09.620Z,8.18
2023-02-17T18:23:22.861Z,8.19
2023-02-17T18:25:36.682Z,8.21
2023-02-17T18:27:51.961Z,8.25
2023-02-17T18:30:06.668Z,8.27
2023-02-17T18:32:19.624Z,8.29
2023-02-17T18:34:32.798Z,8.30
2023-02-17T18:36:47.101Z,8.31
2023-02-17T18:39:00.756Z,8.33
2023-02-17T18:41:19.791Z,8.32
2023-02-17T18:43:33.785Z,8.32
2023-02-17T18:45:51.003Z,8.33
2023-02-17T18:48:04.254Z,8.32
2023-02-17T18:50:21.686Z,8.32
2023-02-17T18:52:34.852Z,8.32
2023-02-17T18:54:49.508Z,8.34
2023-02-17T18:57:03.007Z,8.36
2023-02-17T18:59:17.154Z,8.41
2023-02-17T19:01:33.909Z,8.43
2023-02-17T19:03:47.621Z,8.44
2023-02-17T19:06:01.430Z,8.43
2023-02-17T19:08:15.361Z,8.39
2023-02-17T19:10:28.562Z,8.34
2023-02-17T19:12:41.903Z,8.34
2023-02-17T19:14:57.297Z,8.35
2023-02-17T19:17:10.710Z,8.38
2023-02-17T19:19:24.328Z,8.41
2023-02-17T19:21:38.395Z,8.44
2023-02-17T19:23:52.947Z,8.48
2023-02-17T19:26:08.549Z,8.46
2023-02-17T19:28:22.459Z,8.45
2023-02-17T19:30:35.823Z,8.47
2023-02-17T19:32:48.983Z,8.47
2023-02-17T19:35:01.990Z,8.46
2023-02-17T19:37:15.411Z,8.45
2023-02-17T19:39:28.820Z,8.45
2023-02-17T19:41:42.233Z,8.44
2023-02-17T19:43:55.642Z,8.43
2023-02-17T19:46:09.823Z,8.44
2023-02-17T19:48:25.594Z,8.46
2023-02-17T19:50:40.268Z,8.50
2023-02-17T19:52:53.407Z,8.53
2023-02-17T19:55:07.208Z,8.55
2023-02-17T19:57:22.662Z,8.57
2023-02-17T19:59:37.384Z,8.55
2023-02-17T20:01:50.700Z,8.55
2023-02-17T20:04:04.806Z,8.56
2023-02-17T20:06:20.206Z,8.58
2023-02-17T20:08:33.266Z,8.58
2023-02-17T20:10:47.716Z,8.59
2023-02-17T20:13:02.745Z,8.60
2023-02-17T20:15:16.847Z,8.60
2023-02-17T20:17:34.155Z,8.61
2023-02-17T20:19:47.035Z,8.63
2023-02-17T20:22:02.358Z,8.67
2023-02-17T20:24:16.414Z,8.67
2023-02-17T20:26:32.103Z,8.64
2023-02-17T20:28:45.356Z,8.60
2023-02-17T20:30:59.703Z,8.59
2023-02-17T20:33:12.645Z,8.59
2023-02-17T20:35:25.868Z,8.58
2023-02-17T20:37:39.484Z,8.60
2023-02-17T20:39:53.153Z,8.59
2023-02-17T20:42:07.564Z,8.60
2023-02-17T20:44:21.056Z,8.61
2023-02-17T20:46:35.639Z,8.64
2023-02-17T20:48:49.004Z,8.67
2023-02-17T20:51:04.265Z,8.66
2023-02-17T20:53:17.689Z,8.69
2023-02-17T20:55:30.928Z,8.70
2023-02-17T20:57:43.919Z,8.67
2023-02-17T20:59:56.842Z,8.61
2023-02-17T21:02:11.222Z,8.57
2023-02-17T21:04:24.278Z,8.55
2023-02-17T21:06:42.430Z,8.53
2023-02-17T21:08:57.119Z,8.50
2023-02-17T21:11:10.845Z,8.49
2023-02-17T21:13:29.919Z,8.48
2023-02-17T21:15:43.082Z,8.46
2023-02-17T21:17:56.792Z,8.43
2023-02-17T21:20:12.396Z,8.40
2023-02-17T21:22:25.780Z,8.35
2023-02-17T21:24:39.727Z,8.34
2023-02-17T21:26:53.148Z,8.32
2023-02-17T21:29:06.885Z,8.31
2023-02-17T21:31:21.364Z,8.32
2023-02-17T21:33:36.738Z,8.37
2023-02-17T21:35:49.800Z,8.42
2023-02-17T21:38:03.116Z,8.46
2023-02-17T21:40:18.417Z,8.46
2023-02-17T21:42:47.137Z,8.46
2023-02-17T21:45:01.377Z,8.41
2023-02-17T21:47:15.307Z,8.29
2023-02-17T21:49:28.877Z,8.13
2023-02-17T21:51:42.967Z,7.99
2023-02-17T21:53:56.019Z,7.89
2023-02-17T21:56:11.164Z,7.83
2023-02-17T21:58:24.104Z,7.79
2023-02-17T22:00:37.290Z,7.78
2023-02-17T22:02:51.723Z,7.77
2023-02-17T22:05:05.304Z,7.79
2023-02-17T22:07:18.743Z,7.81
2023-02-17T22:09:32.831Z,7.84
2023-02-17T22:11:48.535Z,7.87
2023-02-17T22:14:03.374Z,7.90
2023-02-17T22:16:16.847Z,7.90
2023-02-17T22:18:32.241Z,7.91
2023-02-17T22:20:49.274Z,7.91
2023-02-17T22:23:03.198Z,7.93
2023-02-17T22:25:16.753Z,7.94
2023-02-17T22:27:29.825Z,7.94
2023-02-17T22:29:42.833Z,7.92
2023-02-17T22:31:57.212Z,7.92
2023-02-17T22:34:11.884Z,7.94
2023-02-17T22:36:28.583Z,7.94
2023-02-17T22:38:42.423Z,7.98
2023-02-17T22:40:56.254Z,8.01
2023-02-17T22:43:09.803Z,8.03
2023-02-17T22:45:23.833Z,8.04
2023-02-17T22:47:38.584Z,8.03
2023-02-17T22:49:51.910Z,8.03
2023-02-17T22:52:05.555Z,8.02
2023-02-17T22:54:18.985Z,8.03
2023-02-17T22:56:32.614Z,8.02
2023-02-17T22:58:45.928Z,8.01
2023-02-17T23:01:08.336Z,8.01
2023-02-17T23:03:22.224Z,8.04
2023-02-17T23:05:35.960Z,8.10
2023-02-17T23:07:49.798Z,8.15
2023-02-17T23:10:03.782Z,8.20
2023-02-17T23:12:17.145Z,8.23
2023-02-17T23:14:34.469Z,8.22
2023-02-17T23:16:47.784Z,8.24
2023-02-17T23:19:00.951Z,8.24
2023-02-17T23:21:18.764Z,8.23
2023-02-17T23:23:32.336Z,8.22
2023-02-17T23:25:51.220Z,8.22
2023-02-17T23:28:07.308Z,8.22
2023-02-17T23:30:25.341Z,8.23
2023-02-17T23:32:38.758Z,8.23
2023-02-17T23:34:52.218Z,8.25
2023-02-17T23:37:05.662Z,8.25
2023-02-17T23:39:19.176Z,8.24
2023-02-17T23:41:32.279Z,8.26
2023-02-17T23:43:45.421Z,8.29
2023-02-17T23:46:01.575Z,8.31
2023-02-17T23:48:15.632Z,8.29
2023-02-17T23:50:29.250Z,8.29
2023-02-17T23:52:42.914Z,8.30
2023-02-17T23:54:56.851Z,8.32
2023-02-17T23:57:10.392Z,8.32
2023-02-17T23:59:24.354Z,8.31
